createdAt,value
2019-04-20T00:02:20.654Z,100223.99
2019-04-20T00:04:52.491Z,100232.07
2019-04-20T00:07:30.923Z,100223.31
2019-04-20T00:10:07.575Z,100239.26
2019-04-20T00:12:42.338Z,100244.70
2019-04-20T00:15:07.015Z,100230.86
2019-04-20T00:17:50.834Z,100240.36
2019-04-20T00:20:23.557Z,100241.36
2019-04-20T00:23:02.098Z,100247.45
2019-04-20T00:26:11.109Z,100256.63
2019-04-20T00:28:58.877Z,100250.02
2019-04-20T00:31:29.755Z,100237.77
2019-04-20T00:34:02.766Z,100249.27
2019-04-20T00:36:26.260Z,100238.36
2019-04-20T00:39:02.663Z,100236.01
2019-04-20T00:41:40.816Z,100245.19
2019-04-20T00:44:13.262Z,100245.61
2019-04-20T00:46:58.729Z,100243.55
2019-04-20T00:49:36.246Z,100240.07
2019-04-20T00:52:18.679Z,100255.17
2019-04-20T00:54:24.304Z,100273.84
2019-04-20T00:57:09.282Z,100251.88
2019-04-20T00:59:51.410Z,100251.61
2019-04-20T01:02:21.043Z,100235.12
2019-04-20T01:04:57.825Z,100232.00
2019-04-20T01:07:29.836Z,100234.98
2019-04-20T01:10:06.974Z,100228.76
2019-04-20T01:12:41.019Z,100234.08
2019-04-20T01:15:23.654Z,100238.42
2019-04-20T01:18:13.875Z,100232.38
2019-04-20T01:20:51.455Z,100224.25
2019-04-20T01:23:29.132Z,100228.88
2019-04-20T01:26:22.515Z,100240.84
2019-04-20T01:29:06.697Z,100234.36
2019-04-20T01:31:36.351Z,100230.78
2019-04-20T01:34:08.380Z,100245.30
2019-04-20T01:36:50.424Z,100227.38
2019-04-20T01:39:17.989Z,100224.58
2019-04-20T01:41:43.465Z,100223.73
2019-04-20T01:44:18.875Z,100214.96
2019-04-20T01:46:53.275Z,100211.94
2019-04-20T01:49:28.759Z,100227.37
2019-04-20T01:52:07.529Z,100213.28
2019-04-20T01:54:56.700Z,100219.36
2019-04-20T01:58:00.605Z,100213.04
2019-04-20T02:00:51.199Z,100219.45
2019-04-20T02:03:52.477Z,100204.92
2019-04-20T02:06:26.556Z,100200.09
2019-04-20T02:09:03.170Z,100203.28
2019-04-20T02:11:44.701Z,100207.28
2019-04-20T02:14:24.966Z,100204.64
2019-04-20T02:16:56.576Z,100203.00
2019-04-20T02:19:34.623Z,100208.41
2019-04-20T02:22:09.919Z,100223.09
2019-04-20T02:24:29.919Z,100225.27
2019-04-20T02:27:02.503Z,100222.09
2019-04-20T02:29:58.214Z,100216.36
2019-04-20T02:32:40.174Z,100216.07
2019-04-20T02:35:34.618Z,100215.10
2019-04-20T02:40:50.742Z,100234.14
2019-04-20T02:43:35.846Z,100223.28
2019-04-20T02:45:50.569Z,100236.33
2019-04-20T02:51:09.974Z,100236.55
2019-04-20T02:53:53.816Z,100237.19
2019-04-20T02:56:12.312Z,100246.20
2019-04-20T02:58:58.071Z,100245.08
2019-04-20T03:01:43.528Z,100241.70
2019-04-20T03:04:00.771Z,100242.31
2019-04-20T03:06:39.850Z,100240.22
2019-04-20T03:09:32.485Z,100240.23
2019-04-20T03:12:23.871Z,100244.55
2019-04-20T03:14:30.694Z,100241.61
2019-04-20T03:17:15.316Z,100234.29
2019-04-20T03:19:46.454Z,100238.25
2019-04-20T03:22:35.046Z,100236.83
2019-04-20T03:25:18.157Z,100235.53
2019-04-20T03:27:45.981Z,100228.42
2019-04-20T03:31:24.939Z,100234.60
2019-04-20T03:33:51.010Z,100231.13
2019-04-20T03:36:16.124Z,100231.86
2019-04-20T03:38:33.046Z,100217.11
2019-04-20T03:40:59.179Z,100226.37
2019-04-20T03:43:22.167Z,100227.31
2019-04-20T03:46:01.462Z,100230.19
2019-04-20T03:48:48.348Z,100213.17
2019-04-20T03:51:30.637Z,100213.05
2019-04-20T03:54:21.857Z,100209.20
2019-04-20T03:57:29.289Z,100203.13
2019-04-20T04:00:05.133Z,100212.74
2019-04-20T04:03:03.531Z,100204.92
2019-04-20T04:05:27.498Z,100194.79
2019-04-20T04:07:57.999Z,100192.73
2019-04-20T04:10:30.497Z,100204.92
2019-04-20T04:13:11.857Z,100204.05
2019-04-20T04:15:52.031Z,100204.89
2019-04-20T04:18:29.143Z,100208.14
2019-04-20T04:21:03.001Z,100205.95
2019-04-20T04:23:44.468Z,100207.06
2019-04-20T04:26:24.556Z,100198.17
2019-04-20T04:28:53.430Z,100195.29
2019-04-20T04:31:33.373Z,100188.60
2019-04-20T04:34:02.626Z,100192.41
2019-04-20T04:36:36.080Z,100190.84
2019-04-20T04:39:15.391Z,100190.78
2019-04-20T04:41:52.294Z,100201.95
2019-04-20T04:44:17.702Z,100193.10
2019-04-20T04:46:42.619Z,100194.26
2019-04-20T04:49:18.342Z,100199.00
2019-04-20T04:51:52.017Z,100199.16
2019-04-20T04:54:31.635Z,100201.38
2019-04-20T04:56:50.842Z,100209.03
2019-04-20T04:59:23.527Z,100210.91
2019-04-20T05:01:58.391Z,100205.12
2019-04-20T05:05:10.606Z,100206.73
2019-04-20T05:07:43.876Z,100203.31
2019-04-20T05:10:07.455Z,100198.52
2019-04-20T05:12:40.929Z,100192.75
2019-04-20T05:15:31.061Z,100188.39
2019-04-20T05:18:42.777Z,100195.44
2019-04-20T05:21:24.490Z,100197.53
2019-04-20T05:24:04.504Z,100202.83
2019-04-20T05:27:01.521Z,100205.86
2019-04-20T05:29:17.084Z,100199.09
2019-04-20T05:31:51.866Z,100190.59
2019-04-20T05:34:38.765Z,100180.93
2019-04-20T05:37:24.055Z,100173.09
2019-04-20T05:39:45.391Z,100170.55
2019-04-20T05:42:23.147Z,100176.17
2019-04-20T05:44:55.959Z,100180.79
2019-04-20T05:47:27.007Z,100180.80
2019-04-20T05:49:57.082Z,100189.89
2019-04-20T05:52:42.666Z,100191.77
2019-04-20T05:55:12.567Z,100200.97
2019-04-20T05:57:46.903Z,100203.70
2019-04-20T06:00:19.185Z,100211.38
2019-04-20T06:02:52.506Z,100215.47
2019-04-20T06:05:28.826Z,100205.84
2019-04-20T06:08:03.479Z,100206.56
2019-04-20T06:10:38.429Z,100202.76
2019-04-20T06:13:08.994Z,100214.22
2019-04-20T06:15:53.958Z,100203.80
2019-04-20T06:18:28.366Z,100213.68
2019-04-20T06:21:13.646Z,100225.42
2019-04-20T06:24:06.637Z,100225.16
2019-04-20T06:29:04.249Z,100216.28
2019-04-20T06:31:45.913Z,100213.78
2019-04-20T06:34:33.047Z,100215.22
2019-04-20T06:39:40.619Z,100207.30
2019-04-20T06:42:15.238Z,100201.98
2019-04-20T06:44:41.184Z,100198.19
2019-04-20T06:47:22.795Z,100194.14
2019-04-20T06:49:53.604Z,100184.07
2019-04-20T06:52:45.408Z,100183.56
2019-04-20T06:55:15.728Z,100189.90
2019-04-20T06:57:45.047Z,100185.38
2019-04-20T07:00:35.106Z,100183.32
2019-04-20T07:02:53.903Z,100185.67
2019-04-20T07:05:48.982Z,100174.92
2019-04-20T07:08:15.592Z,100177.70
2019-04-20T07:10:40.734Z,100181.98
2019-04-20T07:13:06.217Z,100190.45
2019-04-20T07:15:54.484Z,100183.25
2019-04-20T07:18:35.262Z,100188.33
2019-04-20T07:21:16.090Z,100197.84
2019-04-20T07:23:59.070Z,100191.41
2019-04-20T07:26:29.213Z,100187.42
2019-04-20T07:29:00.718Z,100188.01
2019-04-20T07:31:32.056Z,100187.55
2019-04-20T07:34:10.483Z,100188.00
2019-04-20T07:36:45.816Z,100195.12
2019-04-20T07:39:21.601Z,100193.37
2019-04-20T07:41:54.598Z,100191.58
2019-04-20T07:44:36.358Z,100194.73
2019-04-20T07:47:07.671Z,100195.28
2019-04-20T07:49:35.754Z,100190.94
2019-04-20T07:51:50.625Z,100189.74
2019-04-20T07:54:46.934Z,100191.02
2019-04-20T07:57:14.338Z,100198.41
2019-04-20T07:59:50.908Z,100191.02
2019-04-20T08:02:57.397Z,100194.23
2019-04-20T08:05:39.180Z,100193.85
2019-04-20T08:08:18.039Z,100185.08
2019-04-20T08:10:54.404Z,100191.83
2019-04-20T08:16:06.719Z,100192.19
2019-04-20T08:18:41.607Z,100202.56
2019-04-20T08:21:12.973Z,100206.70
2019-04-20T08:23:58.169Z,100212.31
2019-04-20T08:26:11.293Z,100212.69
2019-04-20T08:28:48.604Z,100213.59
2019-04-20T08:31:35.903Z,100210.50
2019-04-20T08:34:27.649Z,100205.56
2019-04-20T08:36:57.359Z,100208.55
2019-04-20T08:39:48.163Z,100220.70
2019-04-20T08:42:08.807Z,100212.27
2019-04-20T08:47:30.572Z,100215.66
2019-04-20T08:50:19.834Z,100214.08
2019-04-20T08:53:08.918Z,100205.72
2019-04-20T08:55:23.487Z,100162.39
2019-04-20T08:57:39.966Z,100201.48
2019-04-20T09:00:13.257Z,100206.21
2019-04-20T09:02:55.600Z,100199.16
2019-04-20T09:05:36.893Z,100191.85
2019-04-20T09:08:09.289Z,100190.97
2019-04-20T09:10:49.537Z,100185.78
2019-04-20T09:13:19.757Z,100192.06
2019-04-20T09:15:42.545Z,100191.47
2019-04-20T09:18:27.176Z,100179.20
2019-04-20T09:21:01.138Z,100187.67
2019-04-20T09:23:45.678Z,100192.48
2019-04-20T09:26:29.733Z,100192.55
2019-04-20T09:29:01.677Z,100188.81
2019-04-20T09:31:43.739Z,100184.08
2019-04-20T09:34:34.030Z,100180.11
2019-04-20T09:37:36.931Z,100187.48
2019-04-20T09:40:28.143Z,100191.22
2019-04-20T09:42:54.016Z,100187.52
2019-04-20T09:45:47.607Z,100176.31
2019-04-20T09:48:25.244Z,100169.84
2019-04-20T09:51:12.782Z,100173.73
2019-04-20T09:53:39.050Z,100174.94
2019-04-20T09:56:18.139Z,100169.35
2019-04-20T09:58:55.243Z,100164.22
2019-04-20T10:01:19.035Z,100153.91
2019-04-20T10:03:44.980Z,100158.05
2019-04-20T10:06:23.077Z,100167.17
2019-04-20T10:08:56.036Z,100150.33
2019-04-20T10:11:25.568Z,100152.97
2019-04-20T10:13:58.522Z,100144.56
2019-04-20T10:16:31.507Z,100135.78
2019-04-20T10:19:04.914Z,100133.95
2019-04-20T10:21:38.273Z,100126.82
2019-04-20T10:24:10.627Z,100119.56
2019-04-20T10:26:42.848Z,100101.07
2019-04-20T10:29:15.454Z,100103.03
2019-04-20T10:31:54.669Z,100109.23
2019-04-20T10:34:24.010Z,100102.97
2019-04-20T10:37:15.929Z,100101.50
2019-04-20T10:39:48.749Z,100101.83
2019-04-20T10:42:21.155Z,100095.22
2019-04-20T10:44:56.707Z,100082.24
2019-04-20T10:47:27.389Z,100088.96
2019-04-20T10:49:59.349Z,100084.73
2019-04-20T10:52:32.009Z,100073.93
2019-04-20T10:55:08.274Z,100079.12
2019-04-20T10:57:41.756Z,100086.84
2019-04-20T11:00:17.521Z,100074.15
2019-04-20T11:02:51.258Z,100067.28
2019-04-20T11:05:24.473Z,100064.08
2019-04-20T11:07:59.914Z,100059.72
2019-04-20T11:10:49.385Z,100060.09
2019-04-20T11:13:09.523Z,100057.53
2019-04-20T11:15:42.223Z,100053.43
2019-04-20T11:18:15.491Z,100057.80
2019-04-20T11:20:49.113Z,100049.41
2019-04-20T11:23:24.339Z,100048.31
2019-04-20T11:25:58.309Z,100046.14
2019-04-20T11:28:30.411Z,100045.73
2019-04-20T11:31:03.966Z,100041.50
2019-04-20T11:33:40.403Z,100045.05
2019-04-20T11:36:13.005Z,100037.42
2019-04-20T11:38:45.100Z,100037.98
2019-04-20T11:41:23.781Z,100034.89
2019-04-20T11:43:53.782Z,100028.22
2019-04-20T11:46:26.945Z,100028.67
2019-04-20T11:49:01.337Z,100024.06
2019-04-20T11:51:37.314Z,100022.45
2019-04-20T11:54:10.446Z,100012.58
2019-04-20T11:56:46.392Z,100012.80
2019-04-20T11:59:16.949Z,100013.23
2019-04-20T12:02:00.953Z,100003.69
2019-04-20T12:04:45.478Z,100006.06
2019-04-20T12:07:11.118Z,100008.19
2019-04-20T12:09:43.788Z,99995.05
2019-04-20T12:12:27.261Z,99997.74
2019-04-20T12:14:50.544Z,99995.41
2019-04-20T12:17:23.762Z,99989.38
2019-04-20T12:19:55.880Z,99987.98
2019-04-20T12:22:28.307Z,99994.83
2019-04-20T12:25:02.548Z,99984.30
2019-04-20T12:27:36.655Z,99985.34
2019-04-20T12:30:09.970Z,99982.09
2019-04-20T12:32:47.787Z,99979.81
2019-04-20T12:35:18.153Z,99980.58
2019-04-20T12:37:52.401Z,99982.80
2019-04-20T12:40:25.823Z,99985.81
2019-04-20T12:43:02.069Z,99977.67
2019-04-20T12:45:35.666Z,99985.27
2019-04-20T12:48:08.089Z,99982.60
2019-04-20T12:50:41.527Z,99980.79
2019-04-20T12:53:14.810Z,99975.55
2019-04-20T12:55:50.584Z,99967.91
2019-04-20T12:58:23.001Z,99960.91
2019-04-20T13:00:56.335Z,99961.40
2019-04-20T13:03:29.767Z,99958.09
2019-04-20T13:06:03.808Z,99957.19
2019-04-20T13:08:42.206Z,99960.61
2019-04-20T13:11:22.810Z,99960.14
2019-04-20T13:14:38.577Z,99957.27
2019-04-20T13:17:14.886Z,99955.92
2019-04-20T13:19:47.137Z,99952.61
2019-04-20T13:22:19.553Z,99944.75
2019-04-20T13:24:52.713Z,99941.15
2019-04-20T13:27:27.048Z,99925.68
2019-04-20T13:30:00.745Z,99931.28
2019-04-20T13:32:36.478Z,99929.34
2019-04-20T13:35:10.059Z,99927.28
2019-04-20T13:37:44.020Z,99920.59
2019-04-20T13:40:17.743Z,99927.02
2019-04-20T13:42:49.924Z,99927.99
2019-04-20T13:45:22.302Z,99907.03
2019-04-20T13:47:55.108Z,99905.48
2019-04-20T13:50:29.853Z,99902.42
2019-04-20T13:53:03.255Z,99896.27
2019-04-20T13:55:36.001Z,99895.85
2019-04-20T13:58:13.887Z,99892.58
2019-04-20T14:01:03.051Z,99887.08
2019-04-20T14:03:36.573Z,99892.28
2019-04-20T14:06:10.952Z,99888.43
2019-04-20T14:08:45.304Z,99872.81
2019-04-20T14:11:17.797Z,99873.63
2019-04-20T14:13:55.364Z,99880.32
2019-04-20T14:16:25.030Z,99879.06
2019-04-20T14:18:58.702Z,99864.21
2019-04-20T14:21:38.414Z,99869.30
2019-04-20T14:24:10.958Z,99859.91
2019-04-20T14:26:44.568Z,99856.91
2019-04-20T14:29:17.169Z,99860.66
2019-04-20T14:31:50.033Z,99839.45
2019-04-20T14:34:24.737Z,99852.06
2019-04-20T14:36:57.098Z,99845.59
2019-04-20T14:39:30.267Z,99842.33
2019-04-20T14:42:04.472Z,99836.77
2019-04-20T14:44:37.491Z,99837.19
2019-04-20T14:47:09.867Z,99841.68
2019-04-20T14:49:42.998Z,99839.92
2019-04-20T14:52:15.927Z,99836.56
2019-04-20T14:54:47.930Z,99830.05
2019-04-20T14:57:23.412Z,99822.11
2019-04-20T15:00:01.268Z,99820.41
2019-04-20T15:02:36.193Z,99817.85
2019-04-20T15:05:09.028Z,99807.41
2019-04-20T15:07:41.052Z,99803.95
2019-04-20T15:10:13.154Z,99799.41
2019-04-20T15:12:52.549Z,99798.10
2019-04-20T15:15:20.702Z,99801.64
2019-04-20T15:18:05.833Z,99795.98
2019-04-20T15:20:41.646Z,99783.16
2019-04-20T15:23:25.734Z,99788.27
2019-04-20T15:26:00.735Z,99777.98
2019-04-20T15:28:32.730Z,99774.58
2019-04-20T15:31:06.010Z,99778.09
2019-04-20T15:33:39.106Z,99771.83
2019-04-20T15:36:11.474Z,99765.47
2019-04-20T15:38:43.514Z,99766.78
2019-04-20T15:41:16.861Z,99768.89
2019-04-20T15:43:49.394Z,99768.89
2019-04-20T15:46:21.806Z,99769.30
2019-04-20T15:48:53.883Z,99760.20
2019-04-20T15:51:25.910Z,99759.98
2019-04-20T15:53:58.053Z,99754.19
2019-04-20T15:56:30.219Z,99758.89
2019-04-20T15:59:04.264Z,99747.73
2019-04-20T16:01:45.077Z,99747.71
2019-04-20T16:04:39.041Z,99742.39
2019-04-20T16:07:10.893Z,99736.95
2019-04-20T16:09:44.332Z,99739.75
2019-04-20T16:12:17.261Z,99731.92
2019-04-20T16:14:51.735Z,99735.39
2019-04-20T16:17:32.776Z,99732.13
2019-04-20T16:20:06.198Z,99717.95
2019-04-20T16:22:36.726Z,99717.67
2019-04-20T16:25:23.489Z,99717.67
2019-04-20T16:27:56.125Z,99714.98
2019-04-20T16:30:31.711Z,99718.48
2019-04-20T16:33:04.392Z,99716.69
2019-04-20T16:35:36.438Z,99709.65
2019-04-20T16:38:10.718Z,99709.08
2019-04-20T16:40:44.357Z,99708.86
2019-04-20T16:43:24.439Z,99702.34
2019-04-20T16:45:50.990Z,99705.41
2019-04-20T16:48:26.233Z,99704.45
2019-04-20T16:50:58.715Z,99700.20
2019-04-20T16:53:32.938Z,99702.89
2019-04-20T16:56:06.606Z,99699.86
2019-04-20T16:58:39.976Z,99688.92
2019-04-20T17:01:12.060Z,99688.92
2019-04-20T17:03:57.842Z,99687.20
2019-04-20T17:06:20.589Z,99679.59
2019-04-20T17:08:52.928Z,99679.59
2019-04-20T17:11:27.615Z,99695.00
2019-04-20T17:14:01.690Z,99689.51
2019-04-20T17:16:35.621Z,99694.13
2019-04-20T17:19:09.991Z,99689.36
2019-04-20T17:21:42.456Z,99691.18
2019-04-20T17:24:17.464Z,99675.97
2019-04-20T17:27:05.301Z,99694.87
2019-04-20T17:29:48.597Z,99688.85
2019-04-20T17:32:23.533Z,99686.98
2019-04-20T17:35:09.113Z,99694.48
2019-04-20T17:37:33.723Z,99689.16
2019-04-20T17:40:27.025Z,99686.02
2019-04-20T17:42:50.872Z,99675.75
2019-04-20T17:45:24.805Z,99683.77
2019-04-20T17:48:03.245Z,99683.91
2019-04-20T17:53:59.905Z,99674.05
2019-04-20T17:56:30.695Z,99677.65
2019-04-20T17:59:04.527Z,99674.86
2019-04-20T18:02:09.066Z,99674.26
2019-04-20T18:04:56.944Z,99672.31
2019-04-20T18:07:28.421Z,99674.79
2019-04-20T18:09:58.899Z,99670.97
2019-04-20T18:12:23.156Z,99675.14
2019-04-20T18:15:08.089Z,99669.16
2019-04-20T18:17:54.690Z,99676.72
2019-04-20T18:20:32.625Z,99671.29
2019-04-20T18:23:06.573Z,99671.89
2019-04-20T18:26:04.768Z,99666.80
2019-04-20T18:28:26.443Z,99664.22
2019-04-20T18:31:09.111Z,99666.45
2019-04-20T18:33:44.472Z,99667.54
2019-04-20T18:36:23.367Z,99659.59
2019-04-20T18:38:57.393Z,99663.48
2019-04-20T18:41:34.927Z,99660.91
2019-04-20T18:44:02.641Z,99662.96
2019-04-20T18:47:00.431Z,99662.24
2019-04-20T18:49:23.740Z,99662.91
2019-04-20T18:51:43.845Z,99661.88
2019-04-20T18:54:21.344Z,99668.07
2019-04-20T18:56:52.541Z,99658.37
2019-04-20T18:59:35.182Z,99664.30
2019-04-20T19:15:58.700Z,99691.28
2019-04-20T19:32:05.769Z,99696.87
2019-04-20T19:34:39.237Z,99698.88
2019-04-20T19:37:03.864Z,99700.59
2019-04-20T19:39:47.434Z,99696.66
2019-04-20T19:42:18.124Z,99698.42
2019-04-20T19:44:53.257Z,99694.89
2019-04-20T19:47:32.370Z,99699.50
2019-04-20T19:50:10.966Z,99708.01
2019-04-20T19:52:44.820Z,99707.58
2019-04-20T19:55:10.511Z,99706.30
2019-04-20T19:57:45.511Z,99710.80
2019-04-20T20:00:06.373Z,99708.06
2019-04-20T20:02:41.469Z,99710.05
2019-04-20T20:05:17.572Z,99715.05
2019-04-20T20:07:52.735Z,99708.08
2019-04-20T20:10:30.218Z,99712.75
2019-04-20T20:13:00.664Z,99713.63
2019-04-20T20:15:34.319Z,99710.29
2019-04-20T20:18:27.421Z,99712.28
2019-04-20T20:20:55.440Z,99716.60
2019-04-20T20:23:14.447Z,99715.33
2019-04-20T20:25:49.644Z,99715.47
2019-04-20T20:28:30.504Z,99716.66
2019-04-20T20:31:05.997Z,99723.45
2019-04-20T20:33:43.843Z,99722.97
2019-04-20T20:36:11.823Z,99731.83
2019-04-20T20:38:43.705Z,99728.08
2019-04-20T20:41:21.809Z,99732.25
2019-04-20T20:43:57.668Z,99740.02
2019-04-20T20:46:30.643Z,99738.09
2019-04-20T20:49:09.422Z,99745.86
2019-04-20T20:51:49.845Z,99740.12
2019-04-20T20:54:11.337Z,99737.83
2019-04-20T20:56:48.680Z,99739.53
2019-04-20T20:59:25.745Z,99743.91
2019-04-20T21:01:52.396Z,99743.94
2019-04-20T21:04:21.672Z,99752.44
2019-04-20T21:06:55.890Z,99749.51
2019-04-20T21:09:31.228Z,99754.52
2019-04-20T21:12:09.144Z,99755.56
2019-04-20T21:14:40.562Z,99768.59
2019-04-20T21:17:17.923Z,99763.52
2019-04-20T21:20:03.503Z,99762.05
2019-04-20T21:22:43.548Z,99760.75
2019-04-20T21:24:56.872Z,99764.08
2019-04-20T21:27:29.785Z,99775.34
2019-04-20T21:30:03.997Z,99774.08
2019-04-20T21:32:44.171Z,99769.62
2019-04-20T21:35:15.613Z,99772.44
2019-04-20T21:37:51.234Z,99772.64
2019-04-20T21:40:31.542Z,99769.19
2019-04-20T21:43:05.076Z,99767.41
2019-04-20T21:45:37.215Z,99767.42
2019-04-20T21:48:12.788Z,99767.31
2019-04-20T21:50:59.801Z,99774.63
2019-04-20T21:53:20.363Z,99768.22
2019-04-20T21:55:50.141Z,99771.70
2019-04-20T21:58:27.745Z,99779.01
2019-04-20T22:01:09.551Z,99778.08
2019-04-20T22:03:34.218Z,99781.91
2019-04-20T22:06:08.992Z,99775.95
2019-04-20T22:08:47.987Z,99787.39
2019-04-20T22:11:15.808Z,99784.40
2019-04-20T22:13:53.376Z,99783.41
2019-04-20T22:16:41.704Z,99786.55
2019-04-20T22:19:25.031Z,99787.05
2019-04-20T22:21:59.427Z,99786.86
2019-04-20T22:24:39.902Z,99792.50
2019-04-20T22:27:05.013Z,99789.66
2019-04-20T22:29:28.076Z,99789.02
2019-04-20T22:32:06.267Z,99790.98
2019-04-20T22:35:12.599Z,99793.79
2019-04-20T22:38:07.024Z,99785.19
2019-04-20T22:40:36.704Z,99784.02
2019-04-20T22:43:10.367Z,99780.87
2019-04-20T22:45:47.364Z,99785.23
2019-04-20T22:48:19.287Z,99785.88
2019-04-20T22:51:12.326Z,99788.87
2019-04-20T22:53:36.496Z,99785.91
2019-04-20T22:56:21.141Z,99790.23
2019-04-20T22:58:43.267Z,99786.74
2019-04-20T23:01:19.342Z,99781.10
2019-04-20T23:03:41.119Z,99782.77
2019-04-20T23:06:20.782Z,99782.14
2019-04-20T23:08:59.521Z,99777.83
2019-04-20T23:11:31.495Z,99778.82
2019-04-20T23:14:02.372Z,99777.83
2019-04-20T23:16:43.196Z,99770.55
2019-04-20T23:19:10.407Z,99776.50
2019-04-20T23:21:49.609Z,99772.55
2019-04-20T23:24:19.863Z,99771.20
2019-04-20T23:26:53.166Z,99770.02
2019-04-20T23:29:29.578Z,99764.20
2019-04-20T23:32:04.450Z,99759.92
2019-04-20T23:34:34.598Z,99767.52
2019-04-20T23:37:24.580Z,99766.16
2019-04-20T23:39:52.407Z,99762.52
2019-04-20T23:42:33.670Z,99756.52
2019-04-20T23:45:45.622Z,99762.63
2019-04-20T23:48:33.702Z,99762.48
2019-04-20T23:51:29.994Z,99767.73
2019-04-20T23:53:51.168Z,99757.45
2019-04-20T23:56:18.410Z,99758.72
2019-04-20T23:58:51.832Z,99760.02
